Portada
METAR-TAF:

METAR-TAF

Aeroports :

N'Djamena, Txad

latitud: 12-08N, longitud: 015-02E, altitud: 295 m

Observació

L'informe es va fer fa 33 minuts, a les 15:00 UTC
Vent 4 kt del Nord-Oest, variant entre Nord-Oest i Est/Sud-Est
Temperatura 34°C
Humitat 9%
Pressió 1007 hPa
Visibilitat 10 km o més
sense núvols per sota de 1500 mi sense presència de cumulonimbus.

METAR: FTTJ 101500Z 32004KT 320V120 CAVOK 34/M03 Q1007 NOSIG

Hora: 16:33 (15:33 UTC)

Pronòstic

L'informe es va fer fa 4 hores i 33 minuts, a les 11:00 UTC
Pronòstic vàlid del 10 a les 12 UTC al 11 a les 18 UTC
Vent 10 kt del Nord/Nord-Est
Visibilitat 10 km o més
sense núvols per sota de 1500 mi sense presència de cumulonimbus.
Temporalment
l' 10 a les 17 UTC al 10 a les 20 UTC
Visibilitat: 4000 m
calitja
Temporalment
l' 11 a les 16 UTC al 11 a les 18 UTC
Visibilitat: 4000 m
calitja

TAF: FTTJ 101100Z 1012/1118 02010KT CAVOK TEMPO 1017/1020 4000 HZ TEMPO 1116/1118 4000 HZ

Observacions i pronòstics meteorològics de més de 4000 aeroports (METAR i TAF).

Les estacions disponibles són els punts grocs i vermells al mapa.

Posi el ratolí al punt desitjat per veure el nom de l'estació.

Feu clic per veure les observacions i els pronòstics meteorològics.

Per canviar el mapa: feu clic els botons verds amb una creu de color negre per apropar; al botó verd amb un guió per allunyar la imatge; o en les fletxes verdes per a mapes adjacents.


METAR-TAF: